Rescue, CA

10:11 PM PDT on August 21, 2014 (GMT -0700)
Mather | Change Station
CLOSE
Current Station
Airport
Location: Mather AFB,
Elevation: 95 ft
Nearby Weather Stations

Elev 95 ft 38.56 °N, 121.30 °W | Updated 26 minutes ago

Clear
Clear
73 °F
Feels Like 73 °F
N
7
Wind Variable Wind from SSW

Today
High -- | Low -- °F
--% Chance of Precip.
Yesterday
High -- | Low -- °F
Precip. -- in
6:23 AM 7:50 PM
Waning Crescent, 10% visible
Pressure 29.87 in
Visibility 10.0 miles
Clouds Clear
Dew Point 59 °F
Humidity 61%
Rainfall 0.00 in
Snow Depth Not available.
UV 0 out of 12
Pollen 6.60 out of 12
Ozone Good
Flu Activity Not available.
METAR KMHR 220445Z 20006KT 10SM SKC 23/15 A2987

More Conditions Fewer Conditions

Pressure 29.87 in
Visibility 10.0 miles
Clouds Clear
Dew Point 59 °F
Humidity 61%
Rainfall 0.00 in
Snow Depth Not available.
UV 0 out of 12
Pollen 6.60 out of 12
Ozone Good
Flu Activity Not available.
METAR KMHR 220445Z 20006KT 10SM SKC 23/15 A2987

More Conditions Fewer Conditions

10-Day Weather Forecast

Almanac

Astronomy

Aug. 21, 2014 Rise Set
Actual Time 6:23 AM PDT 7:50 PM PDT
Civil Twilight 5:55 AM PDT 8:17 PM PDT
Nautical Twilight 5:21 AM PDT 8:51 PM PDT
Astronomical Twilight 4:46 AM PDT 9:26 PM PDT
Moon 2:59 AM PDT (8/21) 5:21 PM PDT (8/21)
Length of Visible Light 14h 22m
Length of Day
13h 26m
Tomorrow will be 2m 18s shorter.
Waning Crescent, 10% of the Moon is Illuminated
Aug 22
Waning Crescent
Aug 25
New
Sep 2
First Quarter
Sep 8
Full
Sep 15
Last Quarter

Yesterday's Extremes

State Highs State Lows

Community

WunderPhotos

Upload Photos

1,746,131 photos uploaded!

Nearby

Air Quality

  Air Quality AQ Index Pollutant
Yesterday Good
OZONE
Current Good
OZONE
Thursday Moderate
OZONE
Friday Good
OZONE
Saturday Good
OZONE
Sunday Moderate
OZONE
Monday Moderate
OZONE
Tuesday Moderate
OZONE

Snow Depth

Station Depth Elevation
Echo Peak 1 in 7800 ft
CSS Lab 0 in 6900 ft
Blue Lakes 0 in 8000 ft
Monitor Pass 0 in 8350 ft
Leavitt Lake 0 in 9400 ft

Earthquake Activity

City Distance Mag. Time & Date
Berkeley, California 90 miles 2.6 7:41 PM PDT
2014-08-16
Minimum magnitude displayed is 2.5.

Coastal Water Temperatures

Place Temperature
No Stations Reporting

Nearby Weather Stations